sensor_id;sensor_type;location;lat;lon;timestamp;P1;durP1;ratioP1;P2;durP2;ratioP2
74064;SDS011;62421;51.412;5.432;2022-11-15T00:00:51;43.42;;;18.83;;
74064;SDS011;62421;51.412;5.432;2022-11-15T00:03:17;41.75;;;18.25;;
74064;SDS011;62421;51.412;5.432;2022-11-15T00:05:44;41.65;;;18.08;;
74064;SDS011;62421;51.412;5.432;2022-11-15T00:08:09;41.17;;;17.47;;
74064;SDS011;62421;51.412;5.432;2022-11-15T00:10:35;41.03;;;18.17;;
74064;SDS011;62421;51.412;5.432;2022-11-15T00:13:05;38.17;;;17.60;;
74064;SDS011;62421;51.412;5.432;2022-11-15T00:15:35;38.55;;;18.27;;
74064;SDS011;62421;51.412;5.432;2022-11-15T00:18:05;36.80;;;17.98;;
74064;SDS011;62421;51.412;5.432;2022-11-15T00:20:33;40.58;;;17.83;;
74064;SDS011;62421;51.412;5.432;2022-11-15T00:22:58;37.47;;;16.25;;
74064;SDS011;62421;51.412;5.432;2022-11-15T00:25:24;38.63;;;17.57;;
74064;SDS011;62421;51.412;5.432;2022-11-15T00:27:49;41.63;;;18.90;;
74064;SDS011;62421;51.412;5.432;2022-11-15T00:30:16;40.55;;;18.65;;
74064;SDS011;62421;51.412;5.432;2022-11-15T00:32:42;33.47;;;17.23;;
74064;SDS011;62421;51.412;5.432;2022-11-15T00:35:07;34.63;;;17.13;;
74064;SDS011;62421;51.412;5.432;2022-11-15T00:37:33;35.50;;;16.95;;
74064;SDS011;62421;51.412;5.432;2022-11-15T00:39:58;37.60;;;17.30;;
74064;SDS011;62421;51.412;5.432;2022-11-15T00:42:23;36.23;;;17.50;;
74064;SDS011;62421;51.412;5.432;2022-11-15T00:44:48;40.93;;;17.73;;
74064;SDS011;62421;51.412;5.432;2022-11-15T00:47:14;37.20;;;17.43;;
74064;SDS011;62421;51.412;5.432;2022-11-15T00:49:39;38.07;;;16.73;;
74064;SDS011;62421;51.412;5.432;2022-11-15T00:52:05;35.90;;;18.45;;
74064;SDS011;62421;51.412;5.432;2022-11-15T00:54:31;36.17;;;17.17;;
74064;SDS011;62421;51.412;5.432;2022-11-15T00:56:56;36.17;;;16.23;;
74064;SDS011;62421;51.412;5.432;2022-11-15T00:59:21;37.53;;;16.73;;
74064;SDS011;62421;51.412;5.432;2022-11-15T01:01:47;36.60;;;18.20;;
74064;SDS011;62421;51.412;5.432;2022-11-15T01:04:12;33.07;;;15.50;;
74064;SDS011;62421;51.412;5.432;2022-11-15T01:06:38;36.78;;;17.33;;
74064;SDS011;62421;51.412;5.432;2022-11-15T01:09:03;37.17;;;17.50;;
74064;SDS011;62421;51.412;5.432;2022-11-15T01:11:29;36.60;;;18.87;;
74064;SDS011;62421;51.412;5.432;2022-11-15T01:13:54;38.87;;;17.07;;
74064;SDS011;62421;51.412;5.432;2022-11-15T01:16:20;33.67;;;17.63;;
74064;SDS011;62421;51.412;5.432;2022-11-15T01:18:45;34.47;;;17.43;;
74064;SDS011;62421;51.412;5.432;2022-11-15T01:21:12;35.70;;;17.47;;
74064;SDS011;62421;51.412;5.432;2022-11-15T01:23:40;40.10;;;17.42;;
74064;SDS011;62421;51.412;5.432;2022-11-15T01:26:07;36.53;;;16.30;;
74064;SDS011;62421;51.412;5.432;2022-11-15T01:28:35;35.72;;;16.85;;
74064;SDS011;62421;51.412;5.432;2022-11-15T01:31:03;38.38;;;18.23;;
74064;SDS011;62421;51.412;5.432;2022-11-15T01:33:30;35.37;;;17.57;;
74064;SDS011;62421;51.412;5.432;2022-11-15T01:35:55;38.42;;;17.50;;
74064;SDS011;62421;51.412;5.432;2022-11-15T01:38:21;40.53;;;18.20;;
74064;SDS011;62421;51.412;5.432;2022-11-15T01:40:47;41.92;;;18.33;;
74064;SDS011;62421;51.412;5.432;2022-11-15T01:43:22;45.17;;;18.50;;
74064;SDS011;62421;51.412;5.432;2022-11-15T01:45:53;39.13;;;18.88;;
74064;SDS011;62421;51.412;5.432;2022-11-15T01:48:25;48.38;;;18.65;;
74064;SDS011;62421;51.412;5.432;2022-11-15T01:50:57;46.03;;;20.08;;
74064;SDS011;62421;51.412;5.432;2022-11-15T01:53:23;44.33;;;18.67;;
74064;SDS011;62421;51.412;5.432;2022-11-15T01:55:51;47.33;;;19.03;;
74064;SDS011;62421;51.412;5.432;2022-11-15T01:58:17;42.75;;;18.48;;
74064;SDS011;62421;51.412;5.432;2022-11-15T02:00:43;42.28;;;18.90;;
74064;SDS011;62421;51.412;5.432;2022-11-15T02:03:08;49.63;;;19.53;;
74064;SDS011;62421;51.412;5.432;2022-11-15T02:05:35;52.88;;;21.63;;
74064;SDS011;62421;51.412;5.432;2022-11-15T02:08:02;51.27;;;20.37;;
74064;SDS011;62421;51.412;5.432;2022-11-15T02:10:28;50.83;;;21.00;;
74064;SDS011;62421;51.412;5.432;2022-11-15T02:12:53;49.77;;;20.17;;
74064;SDS011;62421;51.412;5.432;2022-11-15T02:15:20;50.63;;;19.83;;
74064;SDS011;62421;51.412;5.432;2022-11-15T02:20:56;44.37;;;18.23;;
74064;SDS011;62421;51.412;5.432;2022-11-15T02:26:18;51.03;;;20.40;;
74064;SDS011;62421;51.412;5.432;2022-11-15T02:29:11;49.22;;;22.05;;
74064;SDS011;62421;51.412;5.432;2022-11-15T02:32:04;45.55;;;19.83;;
74064;SDS011;62421;51.412;5.432;2022-11-15T02:39:53;46.63;;;20.60;;
74064;SDS011;62421;51.412;5.432;2022-11-15T02:42:27;49.35;;;20.90;;
74064;SDS011;62421;51.412;5.432;2022-11-15T02:45:21;44.08;;;18.92;;
74064;SDS011;62421;51.412;5.432;2022-11-15T02:47:51;44.80;;;20.25;;
74064;SDS011;62421;51.412;5.432;2022-11-15T02:50:23;42.00;;;20.17;;
74064;SDS011;62421;51.412;5.432;2022-11-15T02:52:52;46.33;;;19.77;;
74064;SDS011;62421;51.412;5.432;2022-11-15T02:55:30;44.60;;;20.13;;
74064;SDS011;62421;51.412;5.432;2022-11-15T03:03:38;46.13;;;20.10;;
74064;SDS011;62421;51.412;5.432;2022-11-15T03:06:14;45.87;;;19.83;;
74064;SDS011;62421;51.412;5.432;2022-11-15T03:09:03;48.20;;;20.13;;
74064;SDS011;62421;51.412;5.432;2022-11-15T03:11:36;45.33;;;19.17;;
74064;SDS011;62421;51.412;5.432;2022-11-15T03:19:35;47.43;;;21.47;;
74064;SDS011;62421;51.412;5.432;2022-11-15T03:22:12;55.97;;;22.83;;
74064;SDS011;62421;51.412;5.432;2022-11-15T03:24:41;53.58;;;21.90;;
74064;SDS011;62421;51.412;5.432;2022-11-15T03:27:08;48.83;;;20.58;;
74064;SDS011;62421;51.412;5.432;2022-11-15T03:29:39;56.63;;;21.45;;
74064;SDS011;62421;51.412;5.432;2022-11-15T03:32:18;56.37;;;22.20;;
74064;SDS011;62421;51.412;5.432;2022-11-15T03:37:14;50.75;;;22.45;;
74064;SDS011;62421;51.412;5.432;2022-11-15T03:39:42;57.25;;;23.27;;
74064;SDS011;62421;51.412;5.432;2022-11-15T03:42:11;60.17;;;23.17;;
74064;SDS011;62421;51.412;5.432;2022-11-15T03:44:46;57.97;;;22.00;;
74064;SDS011;62421;51.412;5.432;2022-11-15T03:47:25;59.10;;;22.33;;
74064;SDS011;62421;51.412;5.432;2022-11-15T03:49:57;51.95;;;21.33;;
74064;SDS011;62421;51.412;5.432;2022-11-15T03:52:30;57.55;;;22.60;;
74064;SDS011;62421;51.412;5.432;2022-11-15T03:54:57;56.35;;;22.80;;
74064;SDS011;62421;51.412;5.432;2022-11-15T03:57:25;51.93;;;21.70;;
74064;SDS011;62421;51.412;5.432;2022-11-15T03:59:51;45.35;;;20.50;;
74064;SDS011;62421;51.412;5.432;2022-11-15T04:02:16;45.63;;;20.33;;
74064;SDS011;62421;51.412;5.432;2022-11-15T04:04:41;49.67;;;20.63;;
74064;SDS011;62421;51.412;5.432;2022-11-15T04:07:07;48.10;;;19.97;;
74064;SDS011;62421;51.412;5.432;2022-11-15T04:09:32;50.13;;;22.30;;
74064;SDS011;62421;51.412;5.432;2022-11-15T04:11:57;43.53;;;20.03;;
74064;SDS011;62421;51.412;5.432;2022-11-15T04:14:22;56.03;;;21.93;;
74064;SDS011;62421;51.412;5.432;2022-11-15T04:16:48;59.17;;;22.63;;
74064;SDS011;62421;51.412;5.432;2022-11-15T04:19:13;54.13;;;21.90;;
74064;SDS011;62421;51.412;5.432;2022-11-15T04:21:57;52.85;;;21.05;;
74064;SDS011;62421;51.412;5.432;2022-11-15T04:24:41;50.33;;;20.77;;
74064;SDS011;62421;51.412;5.432;2022-11-15T04:27:06;51.70;;;21.33;;
74064;SDS011;62421;51.412;5.432;2022-11-15T04:29:31;55.00;;;22.37;;
74064;SDS011;62421;51.412;5.432;2022-11-15T04:32:00;56.40;;;23.20;;
74064;SDS011;62421;51.412;5.432;2022-11-15T04:34:28;51.45;;;21.45;;
74064;SDS011;62421;51.412;5.432;2022-11-15T04:36:54;57.30;;;22.60;;
74064;SDS011;62421;51.412;5.432;2022-11-15T04:39:38;45.42;;;20.85;;
74064;SDS011;62421;51.412;5.432;2022-11-15T04:42:07;51.83;;;23.17;;
74064;SDS011;62421;51.412;5.432;2022-11-15T04:44:33;48.90;;;22.52;;
74064;SDS011;62421;51.412;5.432;2022-11-15T04:46:58;60.00;;;22.13;;
74064;SDS011;62421;51.412;5.432;2022-11-15T04:49:23;52.70;;;20.97;;
74064;SDS011;62421;51.412;5.432;2022-11-15T04:51:49;55.63;;;21.77;;
74064;SDS011;62421;51.412;5.432;2022-11-15T04:54:14;54.83;;;20.67;;
74064;SDS011;62421;51.412;5.432;2022-11-15T04:56:39;61.97;;;23.60;;
74064;SDS011;62421;51.412;5.432;2022-11-15T04:59:05;48.60;;;20.90;;
74064;SDS011;62421;51.412;5.432;2022-11-15T05:01:30;59.57;;;21.93;;
74064;SDS011;62421;51.412;5.432;2022-11-15T05:03:55;49.42;;;21.77;;
74064;SDS011;62421;51.412;5.432;2022-11-15T05:06:39;50.92;;;21.13;;
74064;SDS011;62421;51.412;5.432;2022-11-15T05:09:04;49.60;;;20.40;;
74064;SDS011;62421;51.412;5.432;2022-11-15T05:11:30;47.53;;;22.20;;
74064;SDS011;62421;51.412;5.432;2022-11-15T05:13:55;53.83;;;23.07;;
74064;SDS011;62421;51.412;5.432;2022-11-15T05:16:20;52.30;;;21.90;;
74064;SDS011;62421;51.412;5.432;2022-11-15T05:18:46;53.93;;;21.50;;
74064;SDS011;62421;51.412;5.432;2022-11-15T05:21:12;49.23;;;21.13;;
74064;SDS011;62421;51.412;5.432;2022-11-15T05:23:39;51.35;;;20.67;;
74064;SDS011;62421;51.412;5.432;2022-11-15T05:26:06;50.73;;;19.87;;
74064;SDS011;62421;51.412;5.432;2022-11-15T05:28:32;55.00;;;21.27;;
74064;SDS011;62421;51.412;5.432;2022-11-15T05:31:05;60.13;;;22.50;;
74064;SDS011;62421;51.412;5.432;2022-11-15T05:33:31;47.38;;;20.27;;
74064;SDS011;62421;51.412;5.432;2022-11-15T05:36:00;55.80;;;19.80;;
74064;SDS011;62421;51.412;5.432;2022-11-15T05:38:29;48.78;;;20.25;;
74064;SDS011;62421;51.412;5.432;2022-11-15T05:40:54;46.57;;;20.47;;
74064;SDS011;62421;51.412;5.432;2022-11-15T05:43:20;51.58;;;19.55;;
74064;SDS011;62421;51.412;5.432;2022-11-15T05:45:46;47.47;;;19.83;;
74064;SDS011;62421;51.412;5.432;2022-11-15T05:48:11;48.88;;;20.27;;
74064;SDS011;62421;51.412;5.432;2022-11-15T05:50:38;45.27;;;19.37;;
74064;SDS011;62421;51.412;5.432;2022-11-15T05:53:06;47.38;;;22.00;;
74064;SDS011;62421;51.412;5.432;2022-11-15T05:55:32;46.53;;;20.45;;
74064;SDS011;62421;51.412;5.432;2022-11-15T05:57:58;49.07;;;19.87;;
74064;SDS011;62421;51.412;5.432;2022-11-15T06:00:24;49.95;;;21.02;;
74064;SDS011;62421;51.412;5.432;2022-11-15T06:02:49;46.17;;;20.30;;
74064;SDS011;62421;51.412;5.432;2022-11-15T06:05:15;48.83;;;22.10;;
74064;SDS011;62421;51.412;5.432;2022-11-15T06:07:40;54.40;;;21.50;;
74064;SDS011;62421;51.412;5.432;2022-11-15T06:10:05;50.17;;;21.67;;
74064;SDS011;62421;51.412;5.432;2022-11-15T06:12:31;50.80;;;21.42;;
74064;SDS011;62421;51.412;5.432;2022-11-15T06:14:57;61.03;;;24.17;;
74064;SDS011;62421;51.412;5.432;2022-11-15T06:17:22;54.70;;;22.33;;
74064;SDS011;62421;51.412;5.432;2022-11-15T06:19:47;58.20;;;22.33;;
74064;SDS011;62421;51.412;5.432;2022-11-15T06:22:12;51.80;;;21.97;;
74064;SDS011;62421;51.412;5.432;2022-11-15T06:24:38;53.27;;;21.87;;
74064;SDS011;62421;51.412;5.432;2022-11-15T06:27:03;51.33;;;21.07;;
74064;SDS011;62421;51.412;5.432;2022-11-15T06:29:28;44.77;;;19.23;;
74064;SDS011;62421;51.412;5.432;2022-11-15T06:31:54;54.37;;;21.30;;
74064;SDS011;62421;51.412;5.432;2022-11-15T06:34:19;55.90;;;20.37;;
74064;SDS011;62421;51.412;5.432;2022-11-15T06:36:44;43.67;;;18.70;;
74064;SDS011;62421;51.412;5.432;2022-11-15T06:39:09;46.37;;;18.40;;
74064;SDS011;62421;51.412;5.432;2022-11-15T06:41:35;46.00;;;17.57;;
74064;SDS011;62421;51.412;5.432;2022-11-15T06:44:01;38.55;;;15.52;;
74064;SDS011;62421;51.412;5.432;2022-11-15T06:46:27;37.57;;;15.97;;
74064;SDS011;62421;51.412;5.432;2022-11-15T06:48:53;39.00;;;15.38;;
74064;SDS011;62421;51.412;5.432;2022-11-15T06:51:18;42.22;;;17.17;;
74064;SDS011;62421;51.412;5.432;2022-11-15T06:53:44;39.78;;;17.50;;
74064;SDS011;62421;51.412;5.432;2022-11-15T06:56:10;45.17;;;17.73;;
74064;SDS011;62421;51.412;5.432;2022-11-15T06:58:36;38.73;;;17.60;;
74064;SDS011;62421;51.412;5.432;2022-11-15T07:01:03;40.63;;;17.20;;
74064;SDS011;62421;51.412;5.432;2022-11-15T07:03:36;41.15;;;17.38;;
74064;SDS011;62421;51.412;5.432;2022-11-15T07:06:06;42.38;;;19.08;;
74064;SDS011;62421;51.412;5.432;2022-11-15T07:08:32;42.47;;;16.90;;
74064;SDS011;62421;51.412;5.432;2022-11-15T07:10:58;45.83;;;19.13;;
74064;SDS011;62421;51.412;5.432;2022-11-15T07:13:26;44.07;;;18.03;;
74064;SDS011;62421;51.412;5.432;2022-11-15T07:15:53;47.78;;;18.08;;
74064;SDS011;62421;51.412;5.432;2022-11-15T07:18:18;47.23;;;18.80;;
74064;SDS011;62421;51.412;5.432;2022-11-15T07:20:44;40.90;;;17.70;;
74064;SDS011;62421;51.412;5.432;2022-11-15T07:23:09;43.10;;;18.52;;
74064;SDS011;62421;51.412;5.432;2022-11-15T07:25:35;41.97;;;18.13;;
74064;SDS011;62421;51.412;5.432;2022-11-15T07:28:00;40.97;;;17.07;;
74064;SDS011;62421;51.412;5.432;2022-11-15T07:30:26;43.20;;;17.65;;
74064;SDS011;62421;51.412;5.432;2022-11-15T07:32:55;45.47;;;18.10;;
74064;SDS011;62421;51.412;5.432;2022-11-15T07:35:22;40.03;;;16.42;;
74064;SDS011;62421;51.412;5.432;2022-11-15T07:37:58;41.83;;;16.58;;
74064;SDS011;62421;51.412;5.432;2022-11-15T07:40:29;38.03;;;15.47;;
74064;SDS011;62421;51.412;5.432;2022-11-15T07:43:03;33.92;;;15.68;;
74064;SDS011;62421;51.412;5.432;2022-11-15T07:45:29;34.83;;;15.07;;
74064;SDS011;62421;51.412;5.432;2022-11-15T07:47:55;35.67;;;15.03;;
74064;SDS011;62421;51.412;5.432;2022-11-15T07:50:21;42.67;;;15.27;;
74064;SDS011;62421;51.412;5.432;2022-11-15T07:52:54;31.85;;;14.13;;
74064;SDS011;62421;51.412;5.432;2022-11-15T07:55:21;35.20;;;14.52;;
74064;SDS011;62421;51.412;5.432;2022-11-15T07:57:47;31.48;;;13.80;;
74064;SDS011;62421;51.412;5.432;2022-11-15T08:00:13;37.90;;;13.70;;
74064;SDS011;62421;51.412;5.432;2022-11-15T08:02:38;33.70;;;14.48;;
74064;SDS011;62421;51.412;5.432;2022-11-15T08:05:04;36.50;;;14.07;;
74064;SDS011;62421;51.412;5.432;2022-11-15T08:07:30;35.03;;;13.43;;
74064;SDS011;62421;51.412;5.432;2022-11-15T08:09:56;37.58;;;14.27;;
74064;SDS011;62421;51.412;5.432;2022-11-15T08:12:21;31.07;;;14.10;;
74064;SDS011;62421;51.412;5.432;2022-11-15T08:14:47;36.78;;;14.43;;
74064;SDS011;62421;51.412;5.432;2022-11-15T08:17:13;32.33;;;12.80;;
74064;SDS011;62421;51.412;5.432;2022-11-15T08:19:38;34.08;;;13.43;;
74064;SDS011;62421;51.412;5.432;2022-11-15T08:22:04;26.77;;;12.53;;
74064;SDS011;62421;51.412;5.432;2022-11-15T08:24:29;32.27;;;13.50;;
74064;SDS011;62421;51.412;5.432;2022-11-15T08:26:54;27.90;;;12.60;;
74064;SDS011;62421;51.412;5.432;2022-11-15T08:29:20;29.83;;;12.10;;
74064;SDS011;62421;51.412;5.432;2022-11-15T08:31:45;31.43;;;12.80;;
74064;SDS011;62421;51.412;5.432;2022-11-15T08:34:11;27.77;;;11.73;;
74064;SDS011;62421;51.412;5.432;2022-11-15T08:36:36;33.10;;;12.73;;
74064;SDS011;62421;51.412;5.432;2022-11-15T08:39:01;32.30;;;11.50;;
74064;SDS011;62421;51.412;5.432;2022-11-15T08:43:56;25.02;;;11.68;;
74064;SDS011;62421;51.412;5.432;2022-11-15T08:46:22;30.50;;;11.30;;
74064;SDS011;62421;51.412;5.432;2022-11-15T08:48:47;21.05;;;10.18;;
74064;SDS011;62421;51.412;5.432;2022-11-15T08:51:13;25.37;;;11.20;;
74064;SDS011;62421;51.412;5.432;2022-11-15T08:53:38;26.30;;;11.33;;
74064;SDS011;62421;51.412;5.432;2022-11-15T08:56:06;25.63;;;12.47;;
74064;SDS011;62421;51.412;5.432;2022-11-15T08:58:33;28.55;;;10.60;;
74064;SDS011;62421;51.412;5.432;2022-11-15T09:00:59;21.17;;;9.90;;
74064;SDS011;62421;51.412;5.432;2022-11-15T09:03:24;20.80;;;10.23;;
74064;SDS011;62421;51.412;5.432;2022-11-15T09:05:53;19.07;;;10.07;;
74064;SDS011;62421;51.412;5.432;2022-11-15T09:08:20;19.38;;;9.60;;
74064;SDS011;62421;51.412;5.432;2022-11-15T09:10:45;18.93;;;8.07;;
74064;SDS011;62421;51.412;5.432;2022-11-15T09:13:11;18.23;;;8.33;;
74064;SDS011;62421;51.412;5.432;2022-11-15T09:15:36;16.57;;;7.60;;
74064;SDS011;62421;51.412;5.432;2022-11-15T09:18:01;18.67;;;7.53;;
74064;SDS011;62421;51.412;5.432;2022-11-15T09:20:27;18.43;;;7.87;;
74064;SDS011;62421;51.412;5.432;2022-11-15T09:22:52;14.07;;;7.00;;
74064;SDS011;62421;51.412;5.432;2022-11-15T09:25:17;14.73;;;6.97;;
74064;SDS011;62421;51.412;5.432;2022-11-15T09:27:42;14.43;;;6.30;;
74064;SDS011;62421;51.412;5.432;2022-11-15T09:30:08;10.55;;;5.95;;
74064;SDS011;62421;51.412;5.432;2022-11-15T09:32:33;9.27;;;5.00;;
74064;SDS011;62421;51.412;5.432;2022-11-15T09:34:59;10.43;;;4.87;;
74064;SDS011;62421;51.412;5.432;2022-11-15T09:37:24;10.27;;;4.27;;
74064;SDS011;62421;51.412;5.432;2022-11-15T09:39:50;11.80;;;3.93;;
74064;SDS011;62421;51.412;5.432;2022-11-15T09:45:17;8.63;;;3.10;;
74064;SDS011;62421;51.412;5.432;2022-11-15T09:51:32;10.88;;;3.00;;
74064;SDS011;62421;51.412;5.432;2022-11-15T09:54:04;9.18;;;2.63;;
74064;SDS011;62421;51.412;5.432;2022-11-15T09:56:37;10.38;;;2.97;;
74064;SDS011;62421;51.412;5.432;2022-11-15T10:04:33;11.52;;;2.70;;
74064;SDS011;62421;51.412;5.432;2022-11-15T10:09:27;7.37;;;1.80;;
74064;SDS011;62421;51.412;5.432;2022-11-15T10:12:01;6.18;;;2.20;;
74064;SDS011;62421;51.412;5.432;2022-11-15T10:14:26;7.53;;;2.70;;
74064;SDS011;62421;51.412;5.432;2022-11-15T10:17:01;5.45;;;1.92;;
74064;SDS011;62421;51.412;5.432;2022-11-15T10:24:50;6.00;;;1.90;;
74064;SDS011;62421;51.412;5.432;2022-11-15T10:27:25;5.50;;;1.65;;
74064;SDS011;62421;51.412;5.432;2022-11-15T10:29:50;11.23;;;1.93;;
74064;SDS011;62421;51.412;5.432;2022-11-15T10:32:17;4.30;;;1.70;;
74064;SDS011;62421;51.412;5.432;2022-11-15T10:34:43;4.13;;;2.13;;
74064;SDS011;62421;51.412;5.432;2022-11-15T10:37:10;4.63;;;1.80;;
74064;SDS011;62421;51.412;5.432;2022-11-15T10:39:35;9.90;;;2.10;;
74064;SDS011;62421;51.412;5.432;2022-11-15T10:42:34;5.03;;;2.20;;
74064;SDS011;62421;51.412;5.432;2022-11-15T10:44:54;8.67;;;1.90;;
74064;SDS011;62421;51.412;5.432;2022-11-15T10:47:24;7.75;;;1.90;;
74064;SDS011;62421;51.412;5.432;2022-11-15T10:49:57;5.60;;;1.77;;
74064;SDS011;62421;51.412;5.432;2022-11-15T10:52:28;7.70;;;2.28;;
74064;SDS011;62421;51.412;5.432;2022-11-15T10:54:56;3.78;;;2.05;;
74064;SDS011;62421;51.412;5.432;2022-11-15T10:57:29;6.35;;;2.05;;
74064;SDS011;62421;51.412;5.432;2022-11-15T10:59:59;9.20;;;1.75;;
74064;SDS011;62421;51.412;5.432;2022-11-15T11:02:36;9.07;;;2.33;;
74064;SDS011;62421;51.412;5.432;2022-11-15T11:08:21;8.30;;;2.17;;
74064;SDS011;62421;51.412;5.432;2022-11-15T11:10:52;9.05;;;1.95;;
74064;SDS011;62421;51.412;5.432;2022-11-15T11:16:02;7.97;;;2.00;;
74064;SDS011;62421;51.412;5.432;2022-11-15T11:21:09;10.07;;;2.13;;
74064;SDS011;62421;51.412;5.432;2022-11-15T11:23:56;6.90;;;2.10;;
74064;SDS011;62421;51.412;5.432;2022-11-15T11:37:49;8.20;;;2.03;;
74064;SDS011;62421;51.412;5.432;2022-11-15T11:40:59;3.40;;;1.23;;
74064;SDS011;62421;51.412;5.432;2022-11-15T11:49:02;8.70;;;1.90;;
74064;SDS011;62421;51.412;5.432;2022-11-15T11:51:36;6.97;;;2.08;;
74064;SDS011;62421;51.412;5.432;2022-11-15T11:54:11;8.55;;;1.85;;
74064;SDS011;62421;51.412;5.432;2022-11-15T11:56:43;7.00;;;1.20;;
74064;SDS011;62421;51.412;5.432;2022-11-15T11:59:12;8.00;;;2.25;;
74064;SDS011;62421;51.412;5.432;2022-11-15T12:01:50;9.80;;;1.63;;
74064;SDS011;62421;51.412;5.432;2022-11-15T12:06:53;6.03;;;1.30;;
74064;SDS011;62421;51.412;5.432;2022-11-15T12:09:43;2.97;;;1.30;;
74064;SDS011;62421;51.412;5.432;2022-11-15T12:12:31;10.43;;;1.60;;
74064;SDS011;62421;51.412;5.432;2022-11-15T12:17:34;6.43;;;1.13;;
74064;SDS011;62421;51.412;5.432;2022-11-15T12:20:13;6.20;;;1.20;;
74064;SDS011;62421;51.412;5.432;2022-11-15T12:25:22;10.93;;;1.48;;
74064;SDS011;62421;51.412;5.432;2022-11-15T12:30:25;5.90;;;1.48;;
74064;SDS011;62421;51.412;5.432;2022-11-15T12:33:28;5.32;;;1.35;;
74064;SDS011;62421;51.412;5.432;2022-11-15T12:35:57;4.90;;;1.40;;
74064;SDS011;62421;51.412;5.432;2022-11-15T12:41:16;11.05;;;2.10;;
74064;SDS011;62421;51.412;5.432;2022-11-15T12:43:43;11.65;;;1.75;;
74064;SDS011;62421;51.412;5.432;2022-11-15T12:48:46;6.03;;;1.60;;
74064;SDS011;62421;51.412;5.432;2022-11-15T12:51:13;5.63;;;1.50;;
74064;SDS011;62421;51.412;5.432;2022-11-15T12:53:39;6.90;;;1.60;;
74064;SDS011;62421;51.412;5.432;2022-11-15T12:58:46;9.03;;;1.37;;
74064;SDS011;62421;51.412;5.432;2022-11-15T13:06:53;8.82;;;1.27;;
74064;SDS011;62421;51.412;5.432;2022-11-15T13:12:02;6.13;;;1.40;;
74064;SDS011;62421;51.412;5.432;2022-11-15T13:17:16;4.43;;;1.30;;
74064;SDS011;62421;51.412;5.432;2022-11-15T13:19:42;6.63;;;1.63;;
74064;SDS011;62421;51.412;5.432;2022-11-15T13:22:09;7.18;;;1.80;;
74064;SDS011;62421;51.412;5.432;2022-11-15T13:24:54;2.70;;;1.20;;
74064;SDS011;62421;51.412;5.432;2022-11-15T13:27:19;6.53;;;1.40;;
74064;SDS011;62421;51.412;5.432;2022-11-15T13:29:45;6.45;;;1.42;;
74064;SDS011;62421;51.412;5.432;2022-11-15T13:32:11;4.47;;;1.30;;
74064;SDS011;62421;51.412;5.432;2022-11-15T13:34:42;3.22;;;1.10;;
74064;SDS011;62421;51.412;5.432;2022-11-15T13:37:27;4.80;;;1.40;;
74064;SDS011;62421;51.412;5.432;2022-11-15T13:39:54;9.45;;;1.55;;
74064;SDS011;62421;51.412;5.432;2022-11-15T13:42:34;3.53;;;1.63;;
74064;SDS011;62421;51.412;5.432;2022-11-15T13:45:00;8.85;;;2.22;;
74064;SDS011;62421;51.412;5.432;2022-11-15T13:47:29;7.72;;;1.48;;
74064;SDS011;62421;51.412;5.432;2022-11-15T13:49:58;5.82;;;1.50;;
74064;SDS011;62421;51.412;5.432;2022-11-15T13:52:28;5.00;;;1.40;;
74064;SDS011;62421;51.412;5.432;2022-11-15T13:55:18;6.80;;;1.50;;
74064;SDS011;62421;51.412;5.432;2022-11-15T14:03:17;5.63;;;1.90;;
74064;SDS011;62421;51.412;5.432;2022-11-15T14:06:08;9.73;;;1.83;;
74064;SDS011;62421;51.412;5.432;2022-11-15T14:08:37;6.90;;;1.50;;
74064;SDS011;62421;51.412;5.432;2022-11-15T14:11:19;7.23;;;1.30;;
74064;SDS011;62421;51.412;5.432;2022-11-15T14:16:46;7.35;;;2.22;;
74064;SDS011;62421;51.412;5.432;2022-11-15T14:24:35;6.90;;;1.50;;
74064;SDS011;62421;51.412;5.432;2022-11-15T14:29:47;7.90;;;1.58;;
74064;SDS011;62421;51.412;5.432;2022-11-15T14:32:14;6.68;;;1.65;;
74064;SDS011;62421;51.412;5.432;2022-11-15T14:34:42;4.90;;;1.30;;
74064;SDS011;62421;51.412;5.432;2022-11-15T14:37:30;5.07;;;1.58;;
74064;SDS011;62421;51.412;5.432;2022-11-15T14:40:02;5.82;;;1.35;;
74064;SDS011;62421;51.412;5.432;2022-11-15T14:42:29;4.30;;;1.37;;
74064;SDS011;62421;51.412;5.432;2022-11-15T14:44:55;7.40;;;1.90;;
74064;SDS011;62421;51.412;5.432;2022-11-15T14:47:20;6.67;;;1.70;;
74064;SDS011;62421;51.412;5.432;2022-11-15T14:49:46;7.27;;;1.67;;
74064;SDS011;62421;51.412;5.432;2022-11-15T14:52:23;6.80;;;1.50;;
74064;SDS011;62421;51.412;5.432;2022-11-15T14:54:58;3.80;;;1.08;;
74064;SDS011;62421;51.412;5.432;2022-11-15T14:57:26;9.23;;;1.70;;
74064;SDS011;62421;51.412;5.432;2022-11-15T14:59:51;3.83;;;1.60;;
74064;SDS011;62421;51.412;5.432;2022-11-15T15:02:18;5.95;;;1.75;;
74064;SDS011;62421;51.412;5.432;2022-11-15T15:04:45;3.95;;;1.70;;
74064;SDS011;62421;51.412;5.432;2022-11-15T15:07:11;14.48;;;1.88;;
74064;SDS011;62421;51.412;5.432;2022-11-15T15:09:36;4.17;;;1.70;;
74064;SDS011;62421;51.412;5.432;2022-11-15T15:12:02;6.18;;;2.42;;
74064;SDS011;62421;51.412;5.432;2022-11-15T15:14:28;5.97;;;2.37;;
74064;SDS011;62421;51.412;5.432;2022-11-15T15:16:53;6.57;;;1.77;;
74064;SDS011;62421;51.412;5.432;2022-11-15T15:19:19;11.83;;;2.00;;
74064;SDS011;62421;51.412;5.432;2022-11-15T15:21:44;6.57;;;1.67;;
74064;SDS011;62421;51.412;5.432;2022-11-15T15:24:13;4.07;;;1.40;;
74064;SDS011;62421;51.412;5.432;2022-11-15T15:26:39;5.28;;;1.80;;
74064;SDS011;62421;51.412;5.432;2022-11-15T15:29:05;7.27;;;1.87;;
74064;SDS011;62421;51.412;5.432;2022-11-15T15:31:31;5.63;;;2.00;;
74064;SDS011;62421;51.412;5.432;2022-11-15T15:33:58;6.00;;;2.50;;
74064;SDS011;62421;51.412;5.432;2022-11-15T15:36:23;6.23;;;2.00;;
74064;SDS011;62421;51.412;5.432;2022-11-15T15:38:48;9.63;;;2.07;;
74064;SDS011;62421;51.412;5.432;2022-11-15T15:41:14;6.23;;;2.07;;
74064;SDS011;62421;51.412;5.432;2022-11-15T15:43:40;8.07;;;2.05;;
74064;SDS011;62421;51.412;5.432;2022-11-15T15:46:14;5.63;;;1.97;;
74064;SDS011;62421;51.412;5.432;2022-11-15T15:48:40;5.32;;;2.15;;
74064;SDS011;62421;51.412;5.432;2022-11-15T15:51:06;8.07;;;2.20;;
74064;SDS011;62421;51.412;5.432;2022-11-15T15:53:32;10.52;;;2.40;;
74064;SDS011;62421;51.412;5.432;2022-11-15T15:55:57;10.77;;;2.47;;
74064;SDS011;62421;51.412;5.432;2022-11-15T15:58:23;7.85;;;2.45;;
74064;SDS011;62421;51.412;5.432;2022-11-15T16:00:48;7.33;;;2.20;;
74064;SDS011;62421;51.412;5.432;2022-11-15T16:03:13;5.77;;;2.13;;
74064;SDS011;62421;51.412;5.432;2022-11-15T16:05:39;7.77;;;2.70;;
74064;SDS011;62421;51.412;5.432;2022-11-15T16:08:04;12.90;;;2.40;;
74064;SDS011;62421;51.412;5.432;2022-11-15T16:10:33;6.33;;;2.07;;
74064;SDS011;62421;51.412;5.432;2022-11-15T16:13:02;10.13;;;2.80;;
74064;SDS011;62421;51.412;5.432;2022-11-15T16:15:29;6.55;;;2.55;;
74064;SDS011;62421;51.412;5.432;2022-11-15T16:17:56;6.67;;;2.30;;
74064;SDS011;62421;51.412;5.432;2022-11-15T16:20:26;5.82;;;2.25;;
74064;SDS011;62421;51.412;5.432;2022-11-15T16:22:58;6.95;;;3.20;;
74064;SDS011;62421;51.412;5.432;2022-11-15T16:25:24;7.63;;;2.70;;
74064;SDS011;62421;51.412;5.432;2022-11-15T16:27:50;6.23;;;3.30;;
74064;SDS011;62421;51.412;5.432;2022-11-15T16:30:17;7.77;;;2.80;;
74064;SDS011;62421;51.412;5.432;2022-11-15T16:32:44;6.78;;;3.40;;
74064;SDS011;62421;51.412;5.432;2022-11-15T16:35:10;6.60;;;2.70;;
74064;SDS011;62421;51.412;5.432;2022-11-15T16:37:40;7.72;;;3.38;;